sensor_id;sensor_type;location;lat;lon;timestamp;pressure;altitude;pressure_sealevel;temperature;humidity
45467;BME280;31212;49.734;8.490;2023-03-15T00:01:20;100042.66;;;1.88;82.84
45467;BME280;31212;49.734;8.490;2023-03-15T00:03:47;100060.88;;;1.72;83.79
45467;BME280;31212;49.734;8.490;2023-03-15T00:06:14;100083.75;;;1.67;84.06
45467;BME280;31212;49.734;8.490;2023-03-15T00:08:41;100116.81;;;1.61;84.90
45467;BME280;31212;49.734;8.490;2023-03-15T00:11:13;100147.16;;;1.50;85.21
45467;BME280;31212;49.734;8.490;2023-03-15T00:13:40;100165.88;;;1.49;86.06
45467;BME280;31212;49.734;8.490;2023-03-15T00:16:07;100170.00;;;1.45;86.35
45467;BME280;31212;49.734;8.490;2023-03-15T00:18:33;100184.38;;;1.42;86.07
45467;BME280;31212;49.734;8.490;2023-03-15T00:21:00;100187.00;;;1.43;86.42
45467;BME280;31212;49.734;8.490;2023-03-15T00:23:26;100188.56;;;1.40;86.25
45467;BME280;31212;49.734;8.490;2023-03-15T00:25:53;100190.94;;;1.35;86.34
45467;BME280;31212;49.734;8.490;2023-03-15T00:28:21;100202.63;;;1.28;86.77
45467;BME280;31212;49.734;8.490;2023-03-15T00:31:01;100201.69;;;1.26;86.37
45467;BME280;31212;49.734;8.490;2023-03-15T00:33:28;100207.41;;;1.19;86.61
45467;BME280;31212;49.734;8.490;2023-03-15T00:36:01;100216.47;;;1.11;87.09
45467;BME280;31212;49.734;8.490;2023-03-15T00:38:31;100233.25;;;1.04;87.21
45467;BME280;31212;49.734;8.490;2023-03-15T00:40:58;100238.22;;;1.01;87.23
45467;BME280;31212;49.734;8.490;2023-03-15T00:43:26;100238.81;;;0.94;87.54
45467;BME280;31212;49.734;8.490;2023-03-15T00:45:52;100248.78;;;0.88;87.76
45467;BME280;31212;49.734;8.490;2023-03-15T00:48:19;100240.09;;;0.82;87.87
45467;BME280;31212;49.734;8.490;2023-03-15T00:50:45;100248.31;;;0.75;88.07
45467;BME280;31212;49.734;8.490;2023-03-15T00:53:12;100258.28;;;0.69;88.10
45467;BME280;31212;49.734;8.490;2023-03-15T00:55:38;100271.59;;;0.62;88.67
45467;BME280;31212;49.734;8.490;2023-03-15T00:58:05;100277.16;;;0.52;88.65
45467;BME280;31212;49.734;8.490;2023-03-15T01:00:33;100280.25;;;0.44;89.01
45467;BME280;31212;49.734;8.490;2023-03-15T01:03:02;100291.72;;;0.33;89.55
45467;BME280;31212;49.734;8.490;2023-03-15T01:05:29;100300.72;;;0.25;89.87
45467;BME280;31212;49.734;8.490;2023-03-15T01:07:55;100309.91;;;0.21;90.16
45467;BME280;31212;49.734;8.490;2023-03-15T01:10:22;100318.25;;;0.17;90.40
45467;BME280;31212;49.734;8.490;2023-03-15T01:12:48;100319.00;;;0.14;90.67
45467;BME280;31212;49.734;8.490;2023-03-15T01:15:15;100325.50;;;0.08;91.12
45467;BME280;31212;49.734;8.490;2023-03-15T01:17:43;100334.78;;;0.06;91.39
45467;BME280;31212;49.734;8.490;2023-03-15T01:20:11;100347.97;;;0.15;91.50
45467;BME280;31212;49.734;8.490;2023-03-15T01:22:38;100345.59;;;0.20;91.73
45467;BME280;31212;49.734;8.490;2023-03-15T01:25:06;100338.69;;;0.17;91.55
45467;BME280;31212;49.734;8.490;2023-03-15T01:27:33;100346.13;;;0.32;91.71
45467;BME280;31212;49.734;8.490;2023-03-15T01:30:00;100342.38;;;0.24;91.22
45467;BME280;31212;49.734;8.490;2023-03-15T01:32:26;100343.50;;;0.30;91.12
45467;BME280;31212;49.734;8.490;2023-03-15T01:34:55;100347.59;;;0.27;91.05
45467;BME280;31212;49.734;8.490;2023-03-15T01:37:22;100345.59;;;0.20;90.96
45467;BME280;31212;49.734;8.490;2023-03-15T01:39:49;100353.06;;;0.15;91.29
45467;BME280;31212;49.734;8.490;2023-03-15T01:42:15;100362.19;;;0.10;91.37
45467;BME280;31212;49.734;8.490;2023-03-15T01:44:58;100362.72;;;0.03;91.66
45467;BME280;31212;49.734;8.490;2023-03-15T01:47:26;100363.31;;;-0.03;91.81
45467;BME280;31212;49.734;8.490;2023-03-15T01:50:00;100366.47;;;-0.09;91.97
45467;BME280;31212;49.734;8.490;2023-03-15T01:52:30;100372.84;;;0.01;91.60
45467;BME280;31212;49.734;8.490;2023-03-15T01:55:07;100374.19;;;-0.07;92.30
45467;BME280;31212;49.734;8.490;2023-03-15T01:57:40;100374.19;;;-0.07;91.88
45467;BME280;31212;49.734;8.490;2023-03-15T02:00:12;100378.44;;;-0.08;92.16
45467;BME280;31212;49.734;8.490;2023-03-15T02:02:49;100378.00;;;-0.17;92.43
45467;BME280;31212;49.734;8.490;2023-03-15T02:05:26;100385.59;;;-0.19;92.21
45467;BME280;31212;49.734;8.490;2023-03-15T02:07:54;100383.63;;;-0.24;92.82
45467;BME280;31212;49.734;8.490;2023-03-15T02:10:29;100391.84;;;-0.30;93.03
45467;BME280;31212;49.734;8.490;2023-03-15T02:12:58;100396.63;;;-0.38;93.23
45467;BME280;31212;49.734;8.490;2023-03-15T02:15:25;100399.72;;;-0.43;93.37
45467;BME280;31212;49.734;8.490;2023-03-15T02:17:52;100399.31;;;-0.53;93.61
45467;BME280;31212;49.734;8.490;2023-03-15T02:20:29;100403.09;;;-0.62;94.21
45467;BME280;31212;49.734;8.490;2023-03-15T02:22:59;100414.00;;;-0.65;94.49
45467;BME280;31212;49.734;8.490;2023-03-15T02:25:35;100420.34;;;-0.75;94.81
45467;BME280;31212;49.734;8.490;2023-03-15T02:28:07;100434.41;;;-0.65;95.04
45467;BME280;31212;49.734;8.490;2023-03-15T02:30:35;100445.78;;;-0.58;95.19
45467;BME280;31212;49.734;8.490;2023-03-15T02:33:04;100438.94;;;-0.59;95.46
45467;BME280;31212;49.734;8.490;2023-03-15T02:35:32;100446.22;;;-0.67;95.69
45467;BME280;31212;49.734;8.490;2023-03-15T02:37:59;100434.19;;;-0.70;95.88
45467;BME280;31212;49.734;8.490;2023-03-15T02:40:29;100437.44;;;-0.90;95.84
45467;BME280;31212;49.734;8.490;2023-03-15T02:42:58;100440.31;;;-1.00;96.23
45467;BME280;31212;49.734;8.490;2023-03-15T02:45:28;100441.03;;;-1.03;96.83
45467;BME280;31212;49.734;8.490;2023-03-15T02:47:56;100446.38;;;-0.98;97.33
45467;BME280;31212;49.734;8.490;2023-03-15T02:50:23;100450.38;;;-1.04;97.43
45467;BME280;31212;49.734;8.490;2023-03-15T02:52:50;100471.13;;;-0.96;98.07
45467;BME280;31212;49.734;8.490;2023-03-15T02:55:17;100470.94;;;-0.82;97.75
45467;BME280;31212;49.734;8.490;2023-03-15T02:57:45;100469.75;;;-0.89;97.91
45467;BME280;31212;49.734;8.490;2023-03-15T03:00:12;100467.53;;;-0.83;98.11
45467;BME280;31212;49.734;8.490;2023-03-15T03:02:41;100473.84;;;-0.93;98.48
45467;BME280;31212;49.734;8.490;2023-03-15T03:05:10;100473.34;;;-0.86;98.44
45467;BME280;31212;49.734;8.490;2023-03-15T03:07:36;100477.56;;;-0.86;98.73
45467;BME280;31212;49.734;8.490;2023-03-15T03:10:06;100476.47;;;-0.91;99.13
45467;BME280;31212;49.734;8.490;2023-03-15T03:12:42;100486.41;;;-0.96;99.36
45467;BME280;31212;49.734;8.490;2023-03-15T03:15:10;100491.81;;;-0.90;99.46
45467;BME280;31212;49.734;8.490;2023-03-15T03:17:37;100499.47;;;-0.90;99.61
45467;BME280;31212;49.734;8.490;2023-03-15T03:20:08;100499.16;;;-0.96;99.64
45467;BME280;31212;49.734;8.490;2023-03-15T03:22:41;100502.66;;;-0.94;100.00
45467;BME280;31212;49.734;8.490;2023-03-15T03:25:09;100501.31;;;-1.04;99.91
45467;BME280;31212;49.734;8.490;2023-03-15T03:27:37;100501.22;;;-1.22;99.88
45467;BME280;31212;49.734;8.490;2023-03-15T03:30:08;100517.56;;;-1.34;99.98
45467;BME280;31212;49.734;8.490;2023-03-15T03:32:38;100517.41;;;-1.38;100.00
45467;BME280;31212;49.734;8.490;2023-03-15T03:35:07;100514.69;;;-1.41;100.00
45467;BME280;31212;49.734;8.490;2023-03-15T03:37:34;100516.72;;;-1.50;100.00
45467;BME280;31212;49.734;8.490;2023-03-15T03:40:07;100517.69;;;-1.48;100.00
45467;BME280;31212;49.734;8.490;2023-03-15T03:42:35;100516.34;;;-1.58;100.00
45467;BME280;31212;49.734;8.490;2023-03-15T03:45:03;100523.72;;;-1.62;100.00
45467;BME280;31212;49.734;8.490;2023-03-15T03:47:34;100541.44;;;-1.64;100.00
45467;BME280;31212;49.734;8.490;2023-03-15T03:50:01;100543.38;;;-1.60;100.00
45467;BME280;31212;49.734;8.490;2023-03-15T03:52:29;100541.09;;;-1.55;100.00
45467;BME280;31212;49.734;8.490;2023-03-15T03:55:05;100540.97;;;-1.57;100.00
45467;BME280;31212;49.734;8.490;2023-03-15T03:57:31;100543.16;;;-1.48;100.00
45467;BME280;31212;49.734;8.490;2023-03-15T03:59:58;100547.53;;;-1.45;100.00
45467;BME280;31212;49.734;8.490;2023-03-15T04:02:26;100548.56;;;-1.42;100.00
45467;BME280;31212;49.734;8.490;2023-03-15T04:05:00;100545.16;;;-1.42;100.00
45467;BME280;31212;49.734;8.490;2023-03-15T04:07:27;100542.94;;;-1.36;100.00
45467;BME280;31212;49.734;8.490;2023-03-15T04:09:55;100547.69;;;-1.42;100.00
45467;BME280;31212;49.734;8.490;2023-03-15T04:12:21;100551.13;;;-1.42;100.00
45467;BME280;31212;49.734;8.490;2023-03-15T04:14:52;100557.81;;;-1.44;100.00
45467;BME280;31212;49.734;8.490;2023-03-15T04:17:20;100555.50;;;-1.39;100.00
45467;BME280;31212;49.734;8.490;2023-03-15T04:19:47;100557.41;;;-1.35;100.00
45467;BME280;31212;49.734;8.490;2023-03-15T04:22:19;100557.53;;;-1.33;100.00
45467;BME280;31212;49.734;8.490;2023-03-15T04:24:59;100560.84;;;-1.34;100.00
45467;BME280;31212;49.734;8.490;2023-03-15T04:27:42;100571.13;;;-1.33;100.00
45467;BME280;31212;49.734;8.490;2023-03-15T04:30:28;100568.72;;;-1.30;100.00
45467;BME280;31212;49.734;8.490;2023-03-15T04:33:10;100586.47;;;-1.31;100.00
45467;BME280;31212;49.734;8.490;2023-03-15T04:35:52;100588.88;;;-1.34;100.00
45467;BME280;31212;49.734;8.490;2023-03-15T04:38:37;100586.63;;;-1.28;100.00
45467;BME280;31212;49.734;8.490;2023-03-15T04:41:32;100592.69;;;-1.26;100.00
45467;BME280;31212;49.734;8.490;2023-03-15T04:44:32;100588.88;;;-1.18;100.00
45467;BME280;31212;49.734;8.490;2023-03-15T04:47:08;100587.19;;;-1.17;100.00
45467;BME280;31212;49.734;8.490;2023-03-15T04:49:55;100587.47;;;-1.13;100.00
45467;BME280;31212;49.734;8.490;2023-03-15T04:52:40;100582.53;;;-1.10;100.00
45467;BME280;31212;49.734;8.490;2023-03-15T04:55:20;100572.03;;;-0.99;100.00
45467;BME280;31212;49.734;8.490;2023-03-15T04:58:06;100577.13;;;-0.99;100.00
45467;BME280;31212;49.734;8.490;2023-03-15T05:00:45;100589.38;;;-0.92;100.00
45467;BME280;31212;49.734;8.490;2023-03-15T05:03:23;100579.34;;;-0.89;100.00
45467;BME280;31212;49.734;8.490;2023-03-15T05:06:17;100582.00;;;-0.88;100.00
45467;BME280;31212;49.734;8.490;2023-03-15T05:08:47;100571.63;;;-0.91;100.00
45467;BME280;31212;49.734;8.490;2023-03-15T05:11:43;100575.84;;;-0.91;100.00
45467;BME280;31212;49.734;8.490;2023-03-15T05:14:35;100574.50;;;-0.85;100.00
45467;BME280;31212;49.734;8.490;2023-03-15T05:17:21;100581.09;;;-0.72;100.00
45467;BME280;31212;49.734;8.490;2023-03-15T05:20:17;100576.88;;;-0.71;100.00
45467;BME280;31212;49.734;8.490;2023-03-15T05:22:54;100579.84;;;-0.63;100.00
45467;BME280;31212;49.734;8.490;2023-03-15T05:25:49;100584.38;;;-0.58;100.00
45467;BME280;31212;49.734;8.490;2023-03-15T05:28:43;100578.78;;;-0.51;100.00
45467;BME280;31212;49.734;8.490;2023-03-15T05:31:38;100590.38;;;-0.39;100.00
45467;BME280;31212;49.734;8.490;2023-03-15T05:34:28;100589.84;;;-0.33;100.00
45467;BME280;31212;49.734;8.490;2023-03-15T05:37:16;100584.72;;;-0.33;100.00
45467;BME280;31212;49.734;8.490;2023-03-15T05:39:55;100587.63;;;-0.26;100.00
45467;BME280;31212;49.734;8.490;2023-03-15T05:42:40;100585.19;;;-0.24;100.00
45467;BME280;31212;49.734;8.490;2023-03-15T05:45:19;100589.31;;;-0.26;99.67
45467;BME280;31212;49.734;8.490;2023-03-15T05:48:04;100576.72;;;-0.23;99.57
45467;BME280;31212;49.734;8.490;2023-03-15T05:50:44;100585.41;;;-0.20;99.55
45467;BME280;31212;49.734;8.490;2023-03-15T05:53:43;100582.28;;;-0.14;99.32
45467;BME280;31212;49.734;8.490;2023-03-15T05:56:39;100588.28;;;-0.13;99.06
45467;BME280;31212;49.734;8.490;2023-03-15T05:59:32;100588.16;;;-0.15;99.33
45467;BME280;31212;49.734;8.490;2023-03-15T06:02:19;100591.69;;;-0.13;99.31
45467;BME280;31212;49.734;8.490;2023-03-15T06:05:08;100593.78;;;-0.04;98.98
45467;BME280;31212;49.734;8.490;2023-03-15T06:07:35;100592.53;;;0.04;98.74
45467;BME280;31212;49.734;8.490;2023-03-15T06:10:05;100600.06;;;0.03;98.62
45467;BME280;31212;49.734;8.490;2023-03-15T06:12:32;100612.34;;;0.10;98.38
45467;BME280;31212;49.734;8.490;2023-03-15T06:14:59;100604.41;;;0.22;98.17
45467;BME280;31212;49.734;8.490;2023-03-15T06:17:27;100603.53;;;0.21;97.70
45467;BME280;31212;49.734;8.490;2023-03-15T06:19:53;100613.97;;;0.26;97.42
45467;BME280;31212;49.734;8.490;2023-03-15T06:22:21;100620.97;;;0.30;97.42
45467;BME280;31212;49.734;8.490;2023-03-15T06:24:53;100623.69;;;0.33;97.50
45467;BME280;31212;49.734;8.490;2023-03-15T06:27:21;100622.63;;;0.29;97.19
45467;BME280;31212;49.734;8.490;2023-03-15T06:29:50;100630.88;;;0.24;97.14
45467;BME280;31212;49.734;8.490;2023-03-15T06:32:21;100629.88;;;0.38;97.33
45467;BME280;31212;49.734;8.490;2023-03-15T06:34:48;100622.22;;;0.38;97.02
45467;BME280;31212;49.734;8.490;2023-03-15T06:37:14;100630.88;;;0.42;96.78
45467;BME280;31212;49.734;8.490;2023-03-15T06:39:43;100624.91;;;0.41;96.53
45467;BME280;31212;49.734;8.490;2023-03-15T06:42:09;100624.97;;;0.43;96.34
45467;BME280;31212;49.734;8.490;2023-03-15T06:44:38;100627.31;;;0.56;96.22
45467;BME280;31212;49.734;8.490;2023-03-15T06:47:07;100630.25;;;0.64;95.98
45467;BME280;31212;49.734;8.490;2023-03-15T06:49:36;100624.16;;;0.62;95.81
45467;BME280;31212;49.734;8.490;2023-03-15T06:52:04;100628.41;;;0.61;95.79
45467;BME280;31212;49.734;8.490;2023-03-15T06:54:31;100634.19;;;0.57;95.82
45467;BME280;31212;49.734;8.490;2023-03-15T06:56:59;100642.22;;;0.65;95.88
45467;BME280;31212;49.734;8.490;2023-03-15T06:59:26;100636.56;;;0.72;95.16
45467;BME280;31212;49.734;8.490;2023-03-15T07:01:52;100646.19;;;0.78;94.89
45467;BME280;31212;49.734;8.490;2023-03-15T07:04:19;100639.94;;;0.89;94.70
45467;BME280;31212;49.734;8.490;2023-03-15T07:06:45;100624.78;;;0.94;93.71
45467;BME280;31212;49.734;8.490;2023-03-15T07:09:12;100609.88;;;1.03;92.85
45467;BME280;31212;49.734;8.490;2023-03-15T07:11:38;100601.81;;;1.13;92.43
45467;BME280;31212;49.734;8.490;2023-03-15T07:14:06;100586.59;;;1.16;91.63
45467;BME280;31212;49.734;8.490;2023-03-15T07:16:33;100582.28;;;1.15;91.12
45467;BME280;31212;49.734;8.490;2023-03-15T07:19:00;100582.94;;;1.11;91.54
45467;BME280;31212;49.734;8.490;2023-03-15T07:21:26;100579.66;;;1.14;90.95
45467;BME280;31212;49.734;8.490;2023-03-15T07:23:53;100582.34;;;1.17;91.10
45467;BME280;31212;49.734;8.490;2023-03-15T07:26:20;100594.25;;;1.16;91.64
45467;BME280;31212;49.734;8.490;2023-03-15T07:28:46;100598.03;;;1.25;91.86
45467;BME280;31212;49.734;8.490;2023-03-15T07:31:14;100608.25;;;1.25;91.70
45467;BME280;31212;49.734;8.490;2023-03-15T07:33:41;100609.41;;;1.31;91.61
45467;BME280;31212;49.734;8.490;2023-03-15T07:36:08;100611.22;;;1.34;91.56
45467;BME280;31212;49.734;8.490;2023-03-15T07:38:35;100613.91;;;1.37;91.71
45467;BME280;31212;49.734;8.490;2023-03-15T07:41:02;100615.59;;;1.37;91.28
45467;BME280;31212;49.734;8.490;2023-03-15T07:43:28;100615.78;;;1.41;91.14
45467;BME280;31212;49.734;8.490;2023-03-15T07:46:09;100608.41;;;1.47;90.94
45467;BME280;31212;49.734;8.490;2023-03-15T07:48:37;100602.84;;;1.58;90.77
45467;BME280;31212;49.734;8.490;2023-03-15T07:51:04;100604.47;;;1.56;90.69
45467;BME280;31212;49.734;8.490;2023-03-15T07:53:30;100608.84;;;1.58;90.66
45467;BME280;31212;49.734;8.490;2023-03-15T07:55:57;100616.84;;;1.66;90.55
45467;BME280;31212;49.734;8.490;2023-03-15T07:58:23;100604.38;;;1.74;90.39
45467;BME280;31212;49.734;8.490;2023-03-15T08:00:53;100611.63;;;1.84;90.22
45467;BME280;31212;49.734;8.490;2023-03-15T08:03:20;100602.47;;;1.89;89.38
45467;BME280;31212;49.734;8.490;2023-03-15T08:05:47;100605.81;;;1.88;89.72
45467;BME280;31212;49.734;8.490;2023-03-15T08:08:14;100598.94;;;1.87;89.31
45467;BME280;31212;49.734;8.490;2023-03-15T08:10:41;100592.91;;;1.85;89.40
45467;BME280;31212;49.734;8.490;2023-03-15T08:13:10;100593.44;;;1.78;89.29
45467;BME280;31212;49.734;8.490;2023-03-15T08:15:37;100605.44;;;1.79;89.21
45467;BME280;31212;49.734;8.490;2023-03-15T08:18:04;100607.88;;;1.76;89.63
45467;BME280;31212;49.734;8.490;2023-03-15T08:20:31;100615.69;;;1.79;89.84
45467;BME280;31212;49.734;8.490;2023-03-15T08:23:00;100625.06;;;1.78;89.47
45467;BME280;31212;49.734;8.490;2023-03-15T08:25:27;100619.59;;;1.71;89.67
45467;BME280;31212;49.734;8.490;2023-03-15T08:27:54;100629.97;;;1.74;90.18
45467;BME280;31212;49.734;8.490;2023-03-15T08:30:20;100640.31;;;1.77;90.79
45467;BME280;31212;49.734;8.490;2023-03-15T08:32:48;100647.94;;;1.75;90.80
45467;BME280;31212;49.734;8.490;2023-03-15T08:35:17;100654.63;;;1.72;90.80
45467;BME280;31212;49.734;8.490;2023-03-15T08:37:44;100666.75;;;1.76;90.89
45467;BME280;31212;49.734;8.490;2023-03-15T08:40:14;100676.38;;;1.81;91.34
45467;BME280;31212;49.734;8.490;2023-03-15T08:42:43;100672.19;;;1.83;91.40
45467;BME280;31212;49.734;8.490;2023-03-15T08:45:10;100683.50;;;1.89;91.28
45467;BME280;31212;49.734;8.490;2023-03-15T08:47:37;100681.44;;;1.80;91.63
45467;BME280;31212;49.734;8.490;2023-03-15T08:50:05;100685.75;;;1.81;91.96
45467;BME280;31212;49.734;8.490;2023-03-15T08:52:32;100700.22;;;1.80;92.20
45467;BME280;31212;49.734;8.490;2023-03-15T08:54:59;100714.03;;;1.84;92.45
45467;BME280;31212;49.734;8.490;2023-03-15T08:57:27;100723.50;;;2.06;92.36
45467;BME280;31212;49.734;8.490;2023-03-15T08:59:53;100720.97;;;2.27;92.42
45467;BME280;31212;49.734;8.490;2023-03-15T09:02:20;100725.59;;;2.36;92.07
45467;BME280;31212;49.734;8.490;2023-03-15T09:04:47;100724.38;;;2.47;91.30
45467;BME280;31212;49.734;8.490;2023-03-15T09:07:14;100713.97;;;2.44;91.26
45467;BME280;31212;49.734;8.490;2023-03-15T09:09:40;100718.44;;;2.48;91.25
45467;BME280;31212;49.734;8.490;2023-03-15T09:12:13;100718.63;;;2.53;90.97
45467;BME280;31212;49.734;8.490;2023-03-15T09:14:41;100716.84;;;2.52;90.87
45467;BME280;31212;49.734;8.490;2023-03-15T09:17:08;100715.63;;;2.63;90.86
45467;BME280;31212;49.734;8.490;2023-03-15T09:19:35;100705.22;;;2.60;90.41
45467;BME280;31212;49.734;8.490;2023-03-15T09:22:01;100705.09;;;2.57;90.10
45467;BME280;31212;49.734;8.490;2023-03-15T09:24:28;100702.53;;;2.57;89.82
45467;BME280;31212;49.734;8.490;2023-03-15T09:26:54;100697.84;;;2.68;89.23
45467;BME280;31212;49.734;8.490;2023-03-15T09:29:21;100697.03;;;2.69;89.57
45467;BME280;31212;49.734;8.490;2023-03-15T09:31:49;100700.72;;;2.76;89.50
45467;BME280;31212;49.734;8.490;2023-03-15T09:34:15;100699.53;;;2.90;88.90
45467;BME280;31212;49.734;8.490;2023-03-15T09:36:42;100689.59;;;2.98;88.62
45467;BME280;31212;49.734;8.490;2023-03-15T09:39:08;100690.91;;;3.09;88.75
45467;BME280;31212;49.734;8.490;2023-03-15T09:41:43;100687.38;;;3.07;88.55
45467;BME280;31212;49.734;8.490;2023-03-15T09:44:17;100679.28;;;2.96;88.48
45467;BME280;31212;49.734;8.490;2023-03-15T09:46:56;100677.13;;;3.07;87.83
45467;BME280;31212;49.734;8.490;2023-03-15T09:49:33;100679.09;;;3.14;87.77
45467;BME280;31212;49.734;8.490;2023-03-15T09:52:10;100669.19;;;3.24;87.44
45467;BME280;31212;49.734;8.490;2023-03-15T09:54:42;100679.28;;;3.42;87.56
45467;BME280;31212;49.734;8.490;2023-03-15T09:57:14;100673.25;;;3.65;87.35
45467;BME280;31212;49.734;8.490;2023-03-15T09:59:45;100665.53;;;3.90;87.07
45467;BME280;31212;49.734;8.490;2023-03-15T10:02:17;100650.53;;;4.02;86.25
45467;BME280;31212;49.734;8.490;2023-03-15T10:04:48;100630.09;;;4.05;85.43
45467;BME280;31212;49.734;8.490;2023-03-15T10:07:17;100613.72;;;4.01;84.96
45467;BME280;31212;49.734;8.490;2023-03-15T10:09:44;100600.56;;;3.92;84.54
45467;BME280;31212;49.734;8.490;2023-03-15T10:12:12;100591.81;;;3.87;84.44
45467;BME280;31212;49.734;8.490;2023-03-15T10:14:55;100594.66;;;3.95;84.25
45467;BME280;31212;49.734;8.490;2023-03-15T10:17:31;100566.94;;;3.86;83.70
45467;BME280;31212;49.734;8.490;2023-03-15T10:20:05;100575.91;;;3.72;84.29
45467;BME280;31212;49.734;8.490;2023-03-15T10:22:37;100589.09;;;3.82;84.05
45467;BME280;31212;49.734;8.490;2023-03-15T10:25:13;100601.13;;;4.09;84.21
45467;BME280;31212;49.734;8.490;2023-03-15T10:27:54;100582.06;;;4.30;83.72
45467;BME280;31212;49.734;8.490;2023-03-15T10:30:24;100549.66;;;4.35;82.74
45467;BME280;31212;49.734;8.490;2023-03-15T10:32:57;100523.00;;;4.31;82.16
45467;BME280;31212;49.734;8.490;2023-03-15T10:35:24;100522.38;;;4.11;82.14
45467;BME280;31212;49.734;8.490;2023-03-15T10:37:51;100544.97;;;4.21;82.19
45467;BME280;31212;49.734;8.490;2023-03-15T10:40:39;100531.84;;;4.41;81.90
45467;BME280;31212;49.734;8.490;2023-03-15T10:43:12;100529.78;;;4.58;81.72
45467;BME280;31212;49.734;8.490;2023-03-15T10:45:39;100518.16;;;5.01;81.08
45467;BME280;31212;49.734;8.490;2023-03-15T10:48:08;100483.47;;;5.20;80.47
45467;BME280;31212;49.734;8.490;2023-03-15T10:50:37;100444.41;;;5.37;79.16
45467;BME280;31212;49.734;8.490;2023-03-15T10:53:08;100422.69;;;5.26;78.88
45467;BME280;31212;49.734;8.490;2023-03-15T10:55:36;100418.28;;;5.20;78.72
45467;BME280;31212;49.734;8.490;2023-03-15T10:58:24;100412.16;;;5.16;78.71
45467;BME280;31212;49.734;8.490;2023-03-15T11:00:58;100418.59;;;5.34;78.84
45467;BME280;31212;49.734;8.490;2023-03-15T11:03:28;100418.50;;;5.64;77.97
45467;BME280;31212;49.734;8.490;2023-03-15T11:05:57;100385.47;;;5.84;77.47
45467;BME280;31212;49.734;8.490;2023-03-15T11:08:24;100360.59;;;5.86;76.57
45467;BME280;31212;49.734;8.490;2023-03-15T11:11:00;100334.41;;;5.68;76.14
45467;BME280;31212;49.734;8.490;2023-03-15T11:13:28;100371.22;;;5.62;77.12
45467;BME280;31212;49.734;8.490;2023-03-15T11:16:00;100415.88;;;5.99;77.29
45467;BME280;31212;49.734;8.490;2023-03-15T11:18:30;100352.28;;;5.98;76.19
45467;BME280;31212;49.734;8.490;2023-03-15T11:20:58;100349.56;;;5.94;76.19
45467;BME280;31212;49.734;8.490;2023-03-15T11:23:28;100350.28;;;5.47;76.20
45467;BME280;31212;49.734;8.490;2023-03-15T11:25:57;100429.09;;;5.07;77.76
45467;BME280;31212;49.734;8.490;2023-03-15T11:28:26;100428.38;;;4.18;78.24
45467;BME280;31212;49.734;8.490;2023-03-15T11:30:54;100476.13;;;3.82;79.64
45467;BME280;31212;49.734;8.490;2023-03-15T11:33:36;100533.44;;;3.56;80.97
45467;BME280;31212;49.734;8.490;2023-03-15T11:36:06;100581.69;;;3.40;82.36
45467;BME280;31212;49.734;8.490;2023-03-15T11:38:38;100632.69;;;3.55;83.34
45467;BME280;31212;49.734;8.490;2023-03-15T11:41:15;100675.50;;;4.06;84.01
45467;BME280;31212;49.734;8.490;2023-03-15T11:43:55;100668.63;;;4.31;83.81
45467;BME280;31212;49.734;8.490;2023-03-15T11:46:29;100673.94;;;4.37;84.67
45467;BME280;31212;49.734;8.490;2023-03-15T11:49:02;100690.91;;;4.58;84.73
45467;BME280;31212;49.734;8.490;2023-03-15T11:51:32;100718.94;;;4.77;85.02
45467;BME280;31212;49.734;8.490;2023-03-15T11:54:10;100723.28;;;5.07;85.21
45467;BME280;31212;49.734;8.490;2023-03-15T11:56:47;100706.53;;;5.20;84.83
45467;BME280;31212;49.734;8.490;2023-03-15T11:59:16;100682.50;;;5.50;83.64
45467;BME280;31212;49.734;8.490;2023-03-15T12:01:45;100673.81;;;5.46;83.99
45467;BME280;31212;49.734;8.490;2023-03-15T12:04:43;100677.13;;;5.12;84.37
45467;BME280;31212;49.734;8.490;2023-03-15T12:07:37;100691.69;;;5.11;84.68
45467;BME280;31212;49.734;8.490;2023-03-15T12:10:29;100681.44;;;5.13;83.93
45467;BME280;31212;49.734;8.490;2023-03-15T12:12:58;100677.22;;;5.15;83.55
45467;BME280;31212;49.734;8.490;2023-03-15T12:15:45;100681.94;;;5.30;83.55
45467;BME280;31212;49.734;8.490;2023-03-15T12:18:19;100681.13;;;5.31;83.50
45467;BME280;31212;49.734;8.490;2023-03-15T12:21:11;100693.25;;;5.35;84.10
45467;BME280;31212;49.734;8.490;2023-03-15T12:23:43;100732.66;;;4.50;85.59
45467;BME280;31212;49.734;8.490;2023-03-15T12:26:23;100747.88;;;4.70;85.79
45467;BME280;31212;49.734;8.490;2023-03-15T12:28:52;100760.06;;;4.50;86.41
45467;BME280;31212;49.734;8.490;2023-03-15T12:31:41;100762.38;;;4.42;86.58
45467;BME280;31212;49.734;8.490;2023-03-15T12:34:13;100754.22;;;4.54;86.20
45467;BME280;31212;49.734;8.490;2023-03-15T12:36:44;100784.41;;;4.87;87.36
45467;BME280;31212;49.734;8.490;2023-03-15T12:39:20;100782.09;;;5.22;86.70
45467;BME280;31212;49.734;8.490;2023-03-15T12:41:48;100777.38;;;5.36;86.71
45467;BME280;31212;49.734;8.490;2023-03-15T12:44:36;100739.34;;;5.27;86.10
45467;BME280;31212;49.734;8.490;2023-03-15T12:47:04;100720.13;;;5.45;84.86
45467;BME280;31212;49.734;8.490;2023-03-15T12:49:34;100684.94;;;5.45;84.36
45467;BME280;31212;49.734;8.490;2023-03-15T12:52:04;100648.13;;;5.17;83.46
45467;BME280;31212;49.734;8.490;2023-03-15T12:54:41;100620.63;;;4.86;83.21
45467;BME280;31212;49.734;8.490;2023-03-15T12:57:11;100622.84;;;4.46;83.13
45467;BME280;31212;49.734;8.490;2023-03-15T12:59:43;100657.81;;;4.41;84.02
45467;BME280;31212;49.734;8.490;2023-03-15T13:02:30;100676.34;;;4.31;84.09
45467;BME280;31212;49.734;8.490;2023-03-15T13:05:11;100675.03;;;4.44;84.18
45467;BME280;31212;49.734;8.490;2023-03-15T13:07:46;100676.47;;;4.63;83.93
45467;BME280;31212;49.734;8.490;2023-03-15T13:10:31;100670.19;;;4.53;83.80
45467;BME280;31212;49.734;8.490;2023-03-15T13:15:59;100636.78;;;5.11;82.65
45467;BME280;31212;49.734;8.490;2023-03-15T13:18:32;100594.50;;;5.33;81.39
45467;BME280;31212;49.734;8.490;2023-03-15T13:21:11;100580.28;;;6.13;80.21
45467;BME280;31212;49.734;8.490;2023-03-15T13:23:48;100506.19;;;6.86;77.89